Time;durP1;ratioP1;P1;durP2;ratioP2;P2;SDS_P1;SDS_P2;PMS_P1;PMS_P2;Temp;Humidity;BMP_temperature;BMP_pressure;BME280_temperature;BME280_humidity;BME280_pressure;Samples;Min_cycle;Max_cycle;Signal;HPM_P1;HPM_P2
2023/03/17 00:00:15;;;;;;;1.17;1.08;;;;;;;;;;5084628;28;20020;-82
2023/03/17 00:02:44;;;;;;;0.80;0.80;;;;;;;;;;5085144;28;20032;-83
2023/03/17 00:05:22;;;;;;;0.60;0.60;;;;;;;;;;5085061;28;20032;-84
2023/03/17 00:07:49;;;;;;;1.17;1.10;;;;;;;;;;5083029;28;20025;-83
2023/03/17 00:10:21;;;;;;;0.70;0.70;;;;;;;;;;5084580;28;20032;-82
2023/03/17 00:12:52;;;;;;;0.52;0.52;;;;;;;;;;5086650;28;20081;-82
2023/03/17 00:15:19;;;;;;;2.17;1.13;;;;;;;;;;5083868;28;20028;-85
2023/03/17 00:17:46;;;;;;;0.70;0.70;;;;;;;;;;5090352;28;20468;-84
2023/03/17 00:20:23;;;;;;;2.42;1.48;;;;;;;;;;5087273;28;20024;-83
2023/03/17 00:22:49;;;;;;;2.38;1.65;;;;;;;;;;5087058;28;20036;-83
2023/03/17 00:25:27;;;;;;;1.40;0.98;;;;;;;;;;5106356;28;20039;-87
2023/03/17 00:27:54;;;;;;;0.93;0.73;;;;;;;;;;5084329;28;20028;-87
2023/03/17 00:30:21;;;;;;;1.80;1.48;;;;;;;;;;5087240;28;20081;-85
2023/03/17 00:32:53;;;;;;;4.55;1.80;;;;;;;;;;5090738;28;20536;-82
2023/03/17 00:35:24;;;;;;;2.53;1.85;;;;;;;;;;5082175;28;20059;-83
2023/03/17 00:37:52;;;;;;;0.95;0.90;;;;;;;;;;5090530;28;20031;-82
2023/03/17 00:40:24;;;;;;;0.68;0.68;;;;;;;;;;5087039;28;20036;-83
2023/03/17 00:42:51;;;;;;;0.82;0.50;;;;;;;;;;5086996;28;20046;-83
2023/03/17 00:45:18;;;;;;;0.57;0.57;;;;;;;;;;5090721;28;20027;-83
2023/03/17 00:47:44;;;;;;;1.15;0.77;;;;;;;;;;5086402;28;20056;-84
2023/03/17 00:50:14;;;;;;;0.82;0.82;;;;;;;;;;5085554;28;20024;-83
2023/03/17 00:52:41;;;;;;;0.75;0.75;;;;;;;;;;5090569;28;20491;-84
2023/03/17 00:55:07;;;;;;;0.30;0.30;;;;;;;;;;5083684;28;20059;-84
2023/03/17 00:57:35;;;;;;;0.88;0.65;;;;;;;;;;5087015;28;20088;-82
2023/03/17 01:00:00;;;;;;;2.28;2.10;;;;;;;;;;5088525;28;20083;-84
2023/03/17 01:02:26;;;;;;;0.93;0.63;;;;;;;;;;5086589;28;20036;-86
2023/03/17 01:04:52;;;;;;;1.35;0.93;;;;;;;;;;5084243;28;20119;-83
2023/03/17 01:07:18;;;;;;;1.05;0.80;;;;;;;;;;5086047;28;20025;-83
2023/03/17 01:09:44;;;;;;;2.63;1.60;;;;;;;;;;5084095;28;20562;-84
2023/03/17 01:12:12;;;;;;;1.63;1.45;;;;;;;;;;5086627;28;20073;-84
2023/03/17 01:14:38;;;;;;;2.50;0.85;;;;;;;;;;5084793;28;20023;-82
2023/03/17 01:17:15;;;;;;;1.17;1.08;;;;;;;;;;5090522;28;20024;-83
2023/03/17 01:19:42;;;;;;;1.15;1.05;;;;;;;;;;5087906;28;20052;-85
2023/03/17 01:22:07;;;;;;;1.70;1.23;;;;;;;;;;5088857;28;20581;-85
2023/03/17 01:24:33;;;;;;;1.77;1.60;;;;;;;;;;5087214;28;20028;-84
2023/03/17 01:26:59;;;;;;;3.38;2.40;;;;;;;;;;5088860;28;20061;-83
2023/03/17 01:29:25;;;;;;;2.35;1.20;;;;;;;;;;5085876;28;20024;-82
2023/03/17 01:31:51;;;;;;;1.67;1.58;;;;;;;;;;5089403;28;20058;-83
2023/03/17 01:34:17;;;;;;;2.63;2.00;;;;;;;;;;5086303;28;20067;-82
2023/03/17 01:36:43;;;;;;;1.20;0.88;;;;;;;;;;5089039;28;20025;-85
2023/03/17 01:39:08;;;;;;;1.40;1.30;;;;;;;;;;5087209;28;20082;-82
2023/03/17 01:41:36;;;;;;;1.02;0.93;;;;;;;;;;5086980;28;20479;-83
2023/03/17 01:44:02;;;;;;;2.80;1.98;;;;;;;;;;5084148;28;20024;-83
2023/03/17 01:46:29;;;;;;;1.83;1.08;;;;;;;;;;5087625;28;20028;-85
2023/03/17 01:49:29;;;;;;;1.23;1.10;;;;;;;;;;5083213;28;20482;-84
2023/03/17 01:52:16;;;;;;;1.40;0.70;;;;;;;;;;5109262;28;21635;-85
2023/03/17 01:55:05;;;;;;;2.30;1.30;;;;;;;;;;5086658;28;20028;-84
2023/03/17 01:57:39;;;;;;;0.70;0.70;;;;;;;;;;5087486;28;20023;-84
2023/03/17 02:00:07;;;;;;;0.65;0.65;;;;;;;;;;5087364;28;20257;-83
2023/03/17 02:02:38;;;;;;;0.50;0.50;;;;;;;;;;5084555;28;20035;-83
2023/03/17 02:05:07;;;;;;;0.73;0.73;;;;;;;;;;5110061;28;20031;-85
2023/03/17 02:07:32;;;;;;;0.30;0.30;;;;;;;;;;5080168;28;20426;-81
2023/03/17 02:09:58;;;;;;;0.43;0.43;;;;;;;;;;5080925;28;20089;-81
2023/03/17 02:12:25;;;;;;;0.30;0.30;;;;;;;;;;5081267;28;20028;-81
2023/03/17 02:14:51;;;;;;;1.23;0.70;;;;;;;;;;5085658;28;20028;-82
2023/03/17 02:17:23;;;;;;;0.70;0.70;;;;;;;;;;5084659;28;20032;-81
2023/03/17 02:19:50;;;;;;;0.52;0.35;;;;;;;;;;5085472;28;20060;-82
2023/03/17 02:22:17;;;;;;;0.80;0.80;;;;;;;;;;5099627;28;20103;-82
2023/03/17 02:24:47;;;;;;;0.20;0.20;;;;;;;;;;5084048;28;20020;-81
2023/03/17 02:27:18;;;;;;;0.45;0.45;;;;;;;;;;5083152;28;20422;-82
2023/03/17 02:29:47;;;;;;;1.25;0.68;;;;;;;;;;5087812;28;20024;-81
2023/03/17 02:32:16;;;;;;;0.60;0.60;;;;;;;;;;5082402;28;20023;-81
2023/03/17 02:34:42;;;;;;;0.50;0.50;;;;;;;;;;5089648;28;20127;-82
2023/03/17 02:37:08;;;;;;;0.20;0.20;;;;;;;;;;5085314;28;20473;-83
2023/03/17 02:39:33;;;;;;;0.55;0.55;;;;;;;;;;5084671;28;20087;-82
2023/03/17 02:42:00;;;;;;;0.47;0.47;;;;;;;;;;5085352;28;20118;-81
2023/03/17 02:44:25;;;;;;;0.10;0.10;;;;;;;;;;5087756;28;20388;-82
2023/03/17 02:46:51;;;;;;;1.63;0.70;;;;;;;;;;5085859;28;20031;-82
2023/03/17 02:49:17;;;;;;;0.40;0.40;;;;;;;;;;5088908;28;20042;-83
2023/03/17 02:51:43;;;;;;;0.75;0.30;;;;;;;;;;5087524;28;20026;-81
2023/03/17 02:54:09;;;;;;;0.55;0.30;;;;;;;;;;5080808;28;20381;-83
2023/03/17 02:56:35;;;;;;;0.30;0.30;;;;;;;;;;5085075;28;20024;-82
2023/03/17 02:59:01;;;;;;;0.45;0.45;;;;;;;;;;5086016;28;20035;-83
2023/03/17 03:01:28;;;;;;;0.60;0.60;;;;;;;;;;5080814;28;20024;-82
2023/03/17 03:03:54;;;;;;;0.75;0.60;;;;;;;;;;5085903;28;20025;-82
2023/03/17 03:06:19;;;;;;;0.35;0.35;;;;;;;;;;5079510;28;20498;-83
2023/03/17 03:08:45;;;;;;;0.60;0.57;;;;;;;;;;5085476;28;20039;-83
2023/03/17 03:11:10;;;;;;;0.47;0.30;;;;;;;;;;5080446;28;20038;-82
2023/03/17 03:13:36;;;;;;;0.22;0.22;;;;;;;;;;5084421;28;20086;-82
2023/03/17 03:16:03;;;;;;;0.20;0.20;;;;;;;;;;5080455;28;20066;-82
2023/03/17 03:18:29;;;;;;;0.47;0.43;;;;;;;;;;5086379;28;20500;-84
2023/03/17 03:20:55;;;;;;;4.68;1.77;;;;;;;;;;5082083;28;20024;-83
2023/03/17 03:23:21;;;;;;;1.25;1.08;;;;;;;;;;5082225;28;20038;-83
2023/03/17 03:25:46;;;;;;;0.75;0.68;;;;;;;;;;5087662;28;20028;-81
2023/03/17 03:28:12;;;;;;;3.05;1.27;;;;;;;;;;5085760;28;21364;-82
2023/03/17 03:30:38;;;;;;;2.17;0.45;;;;;;;;;;5082494;28;20438;-83
2023/03/17 03:33:05;;;;;;;1.52;0.88;;;;;;;;;;5084934;28;20063;-82
2023/03/17 03:35:30;;;;;;;3.42;1.02;;;;;;;;;;5086000;28;20125;-83
2023/03/17 03:37:56;;;;;;;0.40;0.38;;;;;;;;;;5083069;28;20043;-81
2023/03/17 03:40:23;;;;;;;1.48;0.77;;;;;;;;;;5088097;28;20021;-81
2023/03/17 03:42:49;;;;;;;0.73;0.73;;;;;;;;;;5080096;28;20028;-81
2023/03/17 03:45:14;;;;;;;3.00;1.13;;;;;;;;;;5087126;28;20391;-82
2023/03/17 03:47:40;;;;;;;0.28;0.28;;;;;;;;;;5085446;28;20111;-82
2023/03/17 03:50:07;;;;;;;0.63;0.60;;;;;;;;;;5084903;28;20059;-84
2023/03/17 03:52:33;;;;;;;0.73;0.73;;;;;;;;;;5084595;28;20077;-84
2023/03/17 03:54:59;;;;;;;0.43;0.30;;;;;;;;;;5082568;28;20032;-82
2023/03/17 03:57:24;;;;;;;0.43;0.43;;;;;;;;;;5086028;28;20452;-82
2023/03/17 03:59:49;;;;;;;0.60;0.60;;;;;;;;;;5083763;28;20020;-85
2023/03/17 04:02:15;;;;;;;0.38;0.38;;;;;;;;;;5083599;28;20036;-83
2023/03/17 04:04:41;;;;;;;1.38;0.90;;;;;;;;;;5087649;28;20016;-84
2023/03/17 04:07:08;;;;;;;0.45;0.45;;;;;;;;;;5090298;28;20495;-82
2023/03/17 04:09:34;;;;;;;0.95;0.60;;;;;;;;;;5087659;28;20478;-82
2023/03/17 04:11:59;;;;;;;2.40;1.65;;;;;;;;;;5089333;28;20128;-82
2023/03/17 04:14:25;;;;;;;2.83;0.93;;;;;;;;;;5082063;28;20024;-84
2023/03/17 04:16:50;;;;;;;0.45;0.45;;;;;;;;;;5086293;28;20035;-82
2023/03/17 04:19:15;;;;;;;1.00;0.57;;;;;;;;;;5087819;28;20027;-82
2023/03/17 04:21:41;;;;;;;0.25;0.25;;;;;;;;;;5088662;28;20032;-82
2023/03/17 04:24:07;;;;;;;0.57;0.52;;;;;;;;;;5088728;28;20028;-84
2023/03/17 04:26:33;;;;;;;1.17;1.00;;;;;;;;;;5092442;28;20021;-83
2023/03/17 04:28:58;;;;;;;0.30;0.30;;;;;;;;;;5090275;28;20112;-83
2023/03/17 04:31:24;;;;;;;1.98;1.88;;;;;;;;;;5090912;28;20031;-83
2023/03/17 04:33:50;;;;;;;2.40;1.17;;;;;;;;;;5089728;28;20131;-82
2023/03/17 04:36:22;;;;;;;1.35;1.17;;;;;;;;;;5089245;28;20450;-81
2023/03/17 04:38:48;;;;;;;3.13;1.92;;;;;;;;;;5086777;28;20016;-81
2023/03/17 04:41:15;;;;;;;2.70;0.98;;;;;;;;;;5090184;28;20113;-80
2023/03/17 04:43:40;;;;;;;1.98;1.65;;;;;;;;;;5091675;28;20023;-83
2023/03/17 04:46:07;;;;;;;2.50;1.38;;;;;;;;;;5088482;28;20426;-82
2023/03/17 04:48:33;;;;;;;2.60;1.67;;;;;;;;;;5084282;28;20473;-81
2023/03/17 04:50:58;;;;;;;2.65;1.83;;;;;;;;;;5087542;28;20034;-82
2023/03/17 04:53:24;;;;;;;1.73;1.63;;;;;;;;;;5087137;28;20024;-81
2023/03/17 04:55:49;;;;;;;1.45;1.05;;;;;;;;;;5087249;28;20074;-82
2023/03/17 04:58:15;;;;;;;1.65;1.15;;;;;;;;;;5088489;28;20047;-81
2023/03/17 05:00:40;;;;;;;1.75;1.42;;;;;;;;;;5084709;28;20028;-82
2023/03/17 05:03:06;;;;;;;1.90;1.25;;;;;;;;;;5085071;28;20384;-81
2023/03/17 05:05:32;;;;;;;1.50;1.00;;;;;;;;;;5088858;28;20107;-82
2023/03/17 05:07:58;;;;;;;0.88;0.88;;;;;;;;;;5089627;28;20059;-82
2023/03/17 05:10:26;;;;;;;1.13;1.08;;;;;;;;;;5083291;28;20028;-81
2023/03/17 05:12:52;;;;;;;1.70;1.40;;;;;;;;;;5087801;28;20021;-80
2023/03/17 05:15:17;;;;;;;3.72;2.20;;;;;;;;;;5084874;28;20082;-83
2023/03/17 05:17:43;;;;;;;2.58;2.38;;;;;;;;;;5084763;28;20027;-84
2023/03/17 05:20:09;;;;;;;2.55;1.90;;;;;;;;;;5087074;28;20024;-79
2023/03/17 05:22:36;;;;;;;3.97;2.55;;;;;;;;;;5094597;28;20137;-78
2023/03/17 05:25:03;;;;;;;5.88;3.58;;;;;;;;;;5086682;28;20027;-80
2023/03/17 05:27:29;;;;;;;5.00;2.28;;;;;;;;;;5087938;28;20475;-86
2023/03/17 05:29:55;;;;;;;5.25;2.13;;;;;;;;;;5088104;28;20035;-85
2023/03/17 05:32:20;;;;;;;4.70;2.90;;;;;;;;;;5091989;28;20468;-78
2023/03/17 05:34:46;;;;;;;5.05;2.92;;;;;;;;;;5087623;28;20107;-78
2023/03/17 05:37:12;;;;;;;2.15;1.88;;;;;;;;;;5080400;28;20036;-79
2023/03/17 05:39:38;;;;;;;4.35;1.67;;;;;;;;;;5091150;28;20016;-79
2023/03/17 05:42:05;;;;;;;2.40;1.25;;;;;;;;;;5091960;28;20399;-79
2023/03/17 05:44:30;;;;;;;2.30;2.10;;;;;;;;;;5090136;28;20024;-80
2023/03/17 05:46:58;;;;;;;0.90;0.75;;;;;;;;;;5085077;28;20380;-79
2023/03/17 05:49:24;;;;;;;1.30;0.75;;;;;;;;;;5086197;28;20021;-80
2023/03/17 05:51:50;;;;;;;2.28;1.35;;;;;;;;;;5092853;28;20387;-78
2023/03/17 05:54:15;;;;;;;2.25;1.20;;;;;;;;;;5092269;28;20036;-78
2023/03/17 05:56:41;;;;;;;1.45;1.23;;;;;;;;;;5075303;28;20488;-78
2023/03/17 05:59:08;;;;;;;2.92;1.80;;;;;;;;;;5085653;28;20019;-78
2023/03/17 06:01:34;;;;;;;1.73;1.60;;;;;;;;;;5091859;28;20418;-80
2023/03/17 06:04:00;;;;;;;1.55;1.05;;;;;;;;;;5087415;28;20048;-81
2023/03/17 06:06:26;;;;;;;2.08;1.23;;;;;;;;;;5085615;28;20031;-82
2023/03/17 06:08:52;;;;;;;1.98;1.52;;;;;;;;;;5084324;28;20051;-80
2023/03/17 06:11:21;;;;;;;2.00;1.23;;;;;;;;;;5085034;28;20025;-82
2023/03/17 06:13:47;;;;;;;2.85;1.23;;;;;;;;;;5086050;28;20108;-82
2023/03/17 06:16:12;;;;;;;2.05;1.85;;;;;;;;;;5090057;28;20059;-81
2023/03/17 06:18:38;;;;;;;2.15;1.83;;;;;;;;;;5080206;28;20024;-84
2023/03/17 06:21:04;;;;;;;1.90;1.67;;;;;;;;;;5082885;28;20024;-79
2023/03/17 06:23:29;;;;;;;1.77;1.55;;;;;;;;;;5079570;28;20472;-78
2023/03/17 06:25:55;;;;;;;1.92;1.58;;;;;;;;;;5092075;28;20024;-78
2023/03/17 06:28:21;;;;;;;1.30;1.02;;;;;;;;;;5090936;28;20552;-79
2023/03/17 06:30:46;;;;;;;1.83;1.10;;;;;;;;;;5091614;28;20079;-78
2023/03/17 06:33:12;;;;;;;1.65;1.48;;;;;;;;;;5088187;28;20131;-77
2023/03/17 06:35:37;;;;;;;1.20;1.08;;;;;;;;;;5084111;28;20111;-78
2023/03/17 06:38:03;;;;;;;1.73;1.63;;;;;;;;;;5085378;28;20028;-77
2023/03/17 06:40:29;;;;;;;2.55;1.33;;;;;;;;;;5084029;28;20024;-79
2023/03/17 06:42:55;;;;;;;1.90;1.23;;;;;;;;;;5083244;28;20024;-79
2023/03/17 06:45:20;;;;;;;3.03;0.95;;;;;;;;;;5087673;28;20127;-78
2023/03/17 06:47:46;;;;;;;0.70;0.70;;;;;;;;;;5091445;28;20031;-78
2023/03/17 06:50:11;;;;;;;0.98;0.65;;;;;;;;;;5082685;28;20039;-77
2023/03/17 06:52:38;;;;;;;1.90;1.75;;;;;;;;;;5088906;28;20041;-78
2023/03/17 06:55:05;;;;;;;0.47;0.47;;;;;;;;;;5081603;28;20078;-79
2023/03/17 06:57:31;;;;;;;2.10;1.02;;;;;;;;;;5085850;28;20028;-78
2023/03/17 06:59:56;;;;;;;2.15;1.63;;;;;;;;;;5083444;28;20625;-79
2023/03/17 07:02:22;;;;;;;6.00;1.27;;;;;;;;;;5091966;28;20024;-81
2023/03/17 07:04:48;;;;;;;2.28;1.85;;;;;;;;;;5087054;28;20161;-79
2023/03/17 07:07:13;;;;;;;1.52;1.42;;;;;;;;;;5087235;28;20118;-78
2023/03/17 07:09:39;;;;;;;3.00;1.13;;;;;;;;;;5082633;28;20043;-79
2023/03/17 07:12:05;;;;;;;1.35;0.80;;;;;;;;;;5090007;28;20032;-80
2023/03/17 07:14:36;;;;;;;0.88;0.73;;;;;;;;;;5086099;28;20042;-79
2023/03/17 07:17:03;;;;;;;2.17;1.30;;;;;;;;;;5087319;28;20111;-80
2023/03/17 07:19:30;;;;;;;0.70;0.70;;;;;;;;;;5081909;28;20034;-81
2023/03/17 07:21:56;;;;;;;2.33;1.23;;;;;;;;;;5087847;28;20020;-79
2023/03/17 07:24:22;;;;;;;1.55;0.63;;;;;;;;;;5084202;28;20080;-80
2023/03/17 07:26:48;;;;;;;1.65;1.40;;;;;;;;;;5084166;28;20052;-77
2023/03/17 07:29:14;;;;;;;1.90;1.08;;;;;;;;;;5082259;28;20476;-78
2023/03/17 07:31:39;;;;;;;1.90;1.80;;;;;;;;;;5087097;28;20399;-81
2023/03/17 07:34:05;;;;;;;2.70;1.33;;;;;;;;;;5090781;28;20059;-78
2023/03/17 07:36:32;;;;;;;6.88;2.55;;;;;;;;;;5075923;28;20040;-79
2023/03/17 07:39:00;;;;;;;3.30;2.50;;;;;;;;;;5079298;28;20383;-81
2023/03/17 07:41:26;;;;;;;4.22;2.45;;;;;;;;;;5090971;28;20016;-81
2023/03/17 07:43:52;;;;;;;2.53;1.42;;;;;;;;;;5081277;28;20024;-79
2023/03/17 07:46:17;;;;;;;1.15;0.70;;;;;;;;;;5080501;28;20523;-78
2023/03/17 07:48:43;;;;;;;4.38;2.13;;;;;;;;;;5082478;28;20035;-80
2023/03/17 07:51:14;;;;;;;8.23;3.63;;;;;;;;;;5087759;28;20024;-78
2023/03/17 07:53:40;;;;;;;6.90;3.35;;;;;;;;;;5083330;28;20071;-79
2023/03/17 07:56:06;;;;;;;2.90;1.95;;;;;;;;;;5075145;28;20450;-78
2023/03/17 07:58:32;;;;;;;3.17;1.20;;;;;;;;;;5084506;28;20028;-79
2023/03/17 08:00:58;;;;;;;4.28;1.05;;;;;;;;;;5080627;28;20112;-80
2023/03/17 08:03:23;;;;;;;3.40;1.80;;;;;;;;;;5089696;28;20503;-80
2023/03/17 08:05:54;;;;;;;1.45;1.35;;;;;;;;;;5084210;28;20024;-80
2023/03/17 08:08:21;;;;;;;2.78;2.08;;;;;;;;;;5089969;28;20025;-78
2023/03/17 08:10:50;;;;;;;2.47;2.15;;;;;;;;;;5087959;28;20043;-80
2023/03/17 08:13:17;;;;;;;3.77;2.63;;;;;;;;;;5086196;28;20081;-80
2023/03/17 08:15:43;;;;;;;2.53;2.15;;;;;;;;;;5089934;28;20027;-80
2023/03/17 08:18:08;;;;;;;9.27;2.58;;;;;;;;;;5089154;28;20442;-80
2023/03/17 08:20:35;;;;;;;1.70;1.15;;;;;;;;;;5089746;28;20024;-80
2023/03/17 08:23:01;;;;;;;5.82;2.00;;;;;;;;;;5084187;28;20081;-81
2023/03/17 08:25:28;;;;;;;3.90;2.78;;;;;;;;;;5097877;28;20024;-79
2023/03/17 08:27:55;;;;;;;4.00;2.55;;;;;;;;;;5086755;28;20024;-79
2023/03/17 08:30:22;;;;;;;3.85;2.35;;;;;;;;;;5083388;28;20036;-80
2023/03/17 08:32:47;;;;;;;3.72;2.97;;;;;;;;;;5090337;28;20494;-79
2023/03/17 08:35:14;;;;;;;2.08;1.88;;;;;;;;;;5090182;28;20142;-79
2023/03/17 08:37:43;;;;;;;7.78;3.58;;;;;;;;;;5084644;28;20106;-78
2023/03/17 08:40:18;;;;;;;3.22;2.15;;;;;;;;;;5104949;28;20016;-79
2023/03/17 08:42:46;;;;;;;2.60;2.20;;;;;;;;;;5082795;28;20044;-80
2023/03/17 08:45:12;;;;;;;2.95;2.17;;;;;;;;;;5085749;28;20105;-79
2023/03/17 08:47:39;;;;;;;7.47;3.92;;;;;;;;;;5081664;28;20524;-79
2023/03/17 08:50:09;;;;;;;7.07;4.10;;;;;;;;;;5087100;28;20024;-77
2023/03/17 08:52:35;;;;;;;12.02;3.90;;;;;;;;;;5083725;28;20031;-79
2023/03/17 08:55:02;;;;;;;5.43;3.58;;;;;;;;;;5092857;28;20043;-79
2023/03/17 08:57:27;;;;;;;5.10;2.78;;;;;;;;;;5083068;28;20120;-80
2023/03/17 08:59:53;;;;;;;8.00;3.80;;;;;;;;;;5093425;28;20019;-79
2023/03/17 09:02:20;;;;;;;4.30;2.33;;;;;;;;;;5089702;28;20062;-79
2023/03/17 09:04:45;;;;;;;7.88;3.08;;;;;;;;;;5091951;28;20464;-79
2023/03/17 09:07:11;;;;;;;3.05;2.03;;;;;;;;;;5089412;28;20085;-80
2023/03/17 09:09:37;;;;;;;6.40;3.35;;;;;;;;;;5090721;28;20386;-79
2023/03/17 09:12:05;;;;;;;6.47;3.95;;;;;;;;;;5087480;28;20111;-79
2023/03/17 09:14:31;;;;;;;11.52;4.30;;;;;;;;;;5090683;28;20080;-79
2023/03/17 09:16:56;;;;;;;5.10;3.67;;;;;;;;;;5085568;28;20046;-79
2023/03/17 09:19:22;;;;;;;12.93;3.63;;;;;;;;;;5090970;28;20032;-79
2023/03/17 09:21:51;;;;;;;3.25;2.00;;;;;;;;;;5092312;28;20102;-79
2023/03/17 09:24:17;;;;;;;4.90;2.20;;;;;;;;;;5092994;28;20102;-79
2023/03/17 09:26:43;;;;;;;2.90;2.08;;;;;;;;;;5087974;28;20040;-79
2023/03/17 09:29:09;;;;;;;3.08;1.50;;;;;;;;;;5080871;28;20021;-79
2023/03/17 09:31:35;;;;;;;2.80;1.55;;;;;;;;;;5091565;28;20036;-79
2023/03/17 09:34:03;;;;;;;2.55;1.52;;;;;;;;;;5082095;28;20118;-80
2023/03/17 09:36:30;;;;;;;4.20;2.38;;;;;;;;;;5092902;28;20042;-80
2023/03/17 09:38:56;;;;;;;2.85;1.45;;;;;;;;;;5076596;28;20016;-80
2023/03/17 09:41:40;;;;;;;4.10;2.22;;;;;;;;;;5083508;28;20084;-79
2023/03/17 09:44:21;;;;;;;1.63;1.13;;;;;;;;;;5104206;28;20146;-80
2023/03/17 09:47:01;;;;;;;4.03;1.85;;;;;;;;;;5085400;28;20467;-80
2023/03/17 09:49:50;;;;;;;2.10;1.48;;;;;;;;;;5087338;28;20461;-79
2023/03/17 09:52:21;;;;;;;2.03;1.27;;;;;;;;;;5089883;28;20047;-79
2023/03/17 09:54:48;;;;;;;2.78;1.40;;;;;;;;;;5087243;28;20110;-79
2023/03/17 09:57:21;;;;;;;2.13;1.50;;;;;;;;;;5078442;28;20023;-80
2023/03/17 09:59:51;;;;;;;1.92;1.55;;;;;;;;;;5080817;28;20051;-79
2023/03/17 10:02:30;;;;;;;1.40;1.30;;;;;;;;;;5078672;28;20028;-78
2023/03/17 10:04:56;;;;;;;2.28;1.33;;;;;;;;;;5085290;28;20081;-79
2023/03/17 10:07:35;;;;;;;1.30;0.88;;;;;;;;;;5084637;28;20065;-80
2023/03/17 10:10:04;;;;;;;2.70;1.40;;;;;;;;;;5086869;28;20024;-79
2023/03/17 10:12:48;;;;;;;3.35;1.38;;;;;;;;;;5104800;28;20028;-79
2023/03/17 10:15:31;;;;;;;1.42;0.95;;;;;;;;;;5088141;28;20032;-80
2023/03/17 10:17:57;;;;;;;2.25;1.27;;;;;;;;;;5101069;28;20027;-79
2023/03/17 10:20:27;;;;;;;1.48;0.80;;;;;;;;;;5084614;28;20418;-81
2023/03/17 10:23:11;;;;;;;1.50;1.35;;;;;;;;;;5079623;28;20039;-80
2023/03/17 10:25:37;;;;;;;2.08;1.23;;;;;;;;;;5086756;28;20050;-79
2023/03/17 10:28:23;;;;;;;1.98;1.05;;;;;;;;;;5081327;28;20476;-81
2023/03/17 10:30:49;;;;;;;1.65;1.13;;;;;;;;;;5087759;28;20038;-80
2023/03/17 10:33:14;;;;;;;3.08;1.80;;;;;;;;;;5086716;28;20044;-80
2023/03/17 10:35:40;;;;;;;1.83;1.45;;;;;;;;;;5090952;28;20020;-80
2023/03/17 10:38:22;;;;;;;1.85;1.23;;;;;;;;;;5081610;28;20035;-80
2023/03/17 10:41:06;;;;;;;2.10;1.30;;;;;;;;;;5090824;28;20380;-80
2023/03/17 10:43:43;;;;;;;1.70;1.42;;;;;;;;;;5078429;28;20034;-80
2023/03/17 10:46:30;;;;;;;2.47;1.25;;;;;;;;;;5086834;28;20038;-81
2023/03/17 10:49:01;;;;;;;3.05;1.13;;;;;;;;;;5084916;28;20465;-80
2023/03/17 10:51:35;;;;;;;5.03;1.33;;;;;;;;;;5090065;28;20024;-80
2023/03/17 10:54:08;;;;;;;1.45;1.35;;;;;;;;;;5082913;28;20098;-80
2023/03/17 10:56:40;;;;;;;2.90;1.50;;;;;;;;;;5072395;28;20103;-81
2023/03/17 10:59:16;;;;;;;1.52;0.82;;;;;;;;;;5085241;28;20444;-80
2023/03/17 11:02:19;;;;;;;4.68;0.98;;;;;;;;;;5083121;28;20502;-79
2023/03/17 11:04:45;;;;;;;2.30;1.38;;;;;;;;;;5076818;28;20421;-80
2023/03/17 11:07:18;;;;;;;8.07;2.88;;;;;;;;;;5085767;28;20085;-81
2023/03/17 11:09:49;;;;;;;7.28;2.65;;;;;;;;;;5089036;28;20446;-79
2023/03/17 11:12:25;;;;;;;31.00;4.75;;;;;;;;;;5088952;28;20028;-80
2023/03/17 11:14:58;;;;;;;4.28;1.98;;;;;;;;;;5086506;28;20020;-83
2023/03/17 11:17:42;;;;;;;16.13;3.70;;;;;;;;;;5083013;28;20020;-79
2023/03/17 11:20:23;;;;;;;2.45;1.75;;;;;;;;;;5083783;28;20046;-79
2023/03/17 11:23:09;;;;;;;1.80;1.23;;;;;;;;;;5085523;28;20376;-78
2023/03/17 11:25:40;;;;;;;3.22;1.20;;;;;;;;;;5078027;28;20077;-78
2023/03/17 11:28:15;;;;;;;1.85;1.17;;;;;;;;;;5081640;28;20024;-78
2023/03/17 11:31:07;;;;;;;0.82;0.82;;;;;;;;;;5087384;28;20027;-78
2023/03/17 11:33:39;;;;;;;0.80;0.65;;;;;;;;;;5078929;28;20387;-78
2023/03/17 11:36:10;;;;;;;5.15;2.20;;;;;;;;;;5080717;28;20028;-78
2023/03/17 11:38:42;;;;;;;3.03;1.95;;;;;;;;;;5080918;28;21463;-79
2023/03/17 11:41:30;;;;;;;3.25;1.30;;;;;;;;;;5079082;28;20127;-78
2023/03/17 11:44:11;;;;;;;3.17;1.60;;;;;;;;;;5080571;28;20032;-78
2023/03/17 11:46:53;;;;;;;1.85;0.82;;;;;;;;;;5098643;28;20031;-84
2023/03/17 11:49:27;;;;;;;2.63;1.35;;;;;;;;;;5078451;28;20034;-78
2023/03/17 11:52:05;;;;;;;2.00;1.33;;;;;;;;;;5074547;28;20024;-79
2023/03/17 11:54:39;;;;;;;3.05;2.08;;;;;;;;;;5078341;28;20434;-79
2023/03/17 11:57:11;;;;;;;1.17;1.08;;;;;;;;;;5077353;28;20136;-81
2023/03/17 12:02:56;;;;;;;1.02;0.90;;;;;;;;;;5064868;28;20865;-81
2023/03/17 12:05:25;;;;;;;2.00;1.58;;;;;;;;;;5050084;28;20021;-82
2023/03/17 12:08:00;;;;;;;2.40;1.85;;;;;;;;;;5063257;28;20098;-82
2023/03/17 12:10:38;;;;;;;2.45;1.30;;;;;;;;;;5052157;28;20025;-81
2023/03/17 12:13:20;;;;;;;3.55;1.77;;;;;;;;;;5050773;28;20021;-82
2023/03/17 12:16:16;;;;;;;2.25;1.60;;;;;;;;;;5049097;28;20036;-82
2023/03/17 12:18:53;;;;;;;2.28;1.35;;;;;;;;;;5047265;28;20481;-81
2023/03/17 12:21:35;;;;;;;2.28;1.45;;;;;;;;;;5048325;28;20110;-83
2023/03/17 12:24:10;;;;;;;1.65;1.30;;;;;;;;;;5047535;28;20159;-81
2023/03/17 12:26:46;;;;;;;3.75;1.80;;;;;;;;;;5048211;28;20477;-82
2023/03/17 12:29:28;;;;;;;1.92;1.42;;;;;;;;;;5043568;28;20509;-83
2023/03/17 12:32:23;;;;;;;1.17;0.93;;;;;;;;;;5053097;28;20417;-82
2023/03/17 12:34:53;;;;;;;2.20;1.60;;;;;;;;;;5068082;28;20064;-82
2023/03/17 12:37:20;;;;;;;2.72;1.50;;;;;;;;;;5047838;28;20017;-82
2023/03/17 12:39:54;;;;;;;3.20;1.73;;;;;;;;;;5047949;28;20124;-83
2023/03/17 12:42:35;;;;;;;3.20;1.50;;;;;;;;;;5056632;28;20029;-84
2023/03/17 12:45:03;;;;;;;3.10;1.35;;;;;;;;;;5044510;28;20453;-83
2023/03/17 12:47:37;;;;;;;9.52;1.67;;;;;;;;;;5054058;28;20029;-82
2023/03/17 12:50:21;;;;;;;3.00;1.50;;;;;;;;;;5053953;28;20056;-81
2023/03/17 12:53:05;;;;;;;2.97;1.45;;;;;;;;;;5046668;28;20021;-82
2023/03/17 12:55:34;;;;;;;5.75;1.98;;;;;;;;;;5050147;28;20041;-82
2023/03/17 12:58:14;;;;;;;4.15;2.28;;;;;;;;;;5057813;28;20427;-82
2023/03/17 13:00:58;;;;;;;7.55;2.75;;;;;;;;;;5057656;28;20092;-82
2023/03/17 13:03:29;;;;;;;5.28;2.03;;;;;;;;;;5046027;28;20041;-82
2023/03/17 13:06:06;;;;;;;8.52;2.45;;;;;;;;;;5058186;28;20115;-81
2023/03/17 13:08:41;;;;;;;13.73;3.55;;;;;;;;;;5047075;28;20477;-82
2023/03/17 13:11:13;;;;;;;7.10;3.00;;;;;;;;;;5053071;28;20069;-82
2023/03/17 13:13:48;;;;;;;24.55;4.47;;;;;;;;;;5038132;28;20061;-82
2023/03/17 13:16:33;;;;;;;14.63;4.45;;;;;;;;;;5040105;28;20036;-82
2023/03/17 13:19:17;;;;;;;5.45;2.80;;;;;;;;;;5038487;28;20049;-82
2023/03/17 13:22:02;;;;;;;5.28;2.40;;;;;;;;;;5034689;28;20045;-83
2023/03/17 13:24:39;;;;;;;5.47;2.58;;;;;;;;;;5039592;28;20389;-82
2023/03/17 13:27:10;;;;;;;2.10;1.58;;;;;;;;;;5029518;28;20025;-83
2023/03/17 13:29:35;;;;;;;3.53;2.22;;;;;;;;;;5043646;28;20644;-83
2023/03/17 13:32:25;;;;;;;5.00;2.80;;;;;;;;;;5044673;28;20092;-82
2023/03/17 13:34:54;;;;;;;3.90;2.10;;;;;;;;;;5030797;28;20028;-82
2023/03/17 13:37:38;;;;;;;2.95;1.85;;;;;;;;;;5046531;28;20090;-81
2023/03/17 13:40:12;;;;;;;2.83;1.42;;;;;;;;;;5033748;28;20040;-81
2023/03/17 13:42:52;;;;;;;3.17;1.75;;;;;;;;;;5036554;28;20478;-82
2023/03/17 13:45:22;;;;;;;1.70;1.30;;;;;;;;;;5033082;28;20066;-83
2023/03/17 13:47:50;;;;;;;1.75;1.10;;;;;;;;;;5034955;28;20045;-82
2023/03/17 13:50:22;;;;;;;2.33;1.38;;;;;;;;;;5033065;28;20025;-82
2023/03/17 13:52:53;;;;;;;1.80;1.25;;;;;;;;;;5036859;28;20148;-83
2023/03/17 13:55:19;;;;;;;3.60;1.13;;;;;;;;;;5029712;28;20036;-83
2023/03/17 13:58:14;;;;;;;2.97;1.63;;;;;;;;;;5035617;28;20477;-83
2023/03/17 14:00:43;;;;;;;1.52;1.00;;;;;;;;;;5036399;28;20108;-84
2023/03/17 14:03:19;;;;;;;0.60;0.60;;;;;;;;;;5035711;28;20108;-80
2023/03/17 14:05:52;;;;;;;0.52;0.52;;;;;;;;;;5040693;28;20082;-84
2023/03/17 14:08:27;;;;;;;1.77;1.00;;;;;;;;;;5045903;28;20021;-84
2023/03/17 14:10:55;;;;;;;2.42;1.40;;;;;;;;;;5044172;28;20171;-83
2023/03/17 14:13:24;;;;;;;3.25;1.30;;;;;;;;;;5036602;28;20158;-84
2023/03/17 14:16:12;;;;;;;0.87;0.60;;;;;;;;;;5039858;28;20381;-85
2023/03/17 14:18:41;;;;;;;1.52;0.95;;;;;;;;;;5031917;28;20417;-80
2023/03/17 14:21:22;;;;;;;0.77;0.70;;;;;;;;;;5031268;28;20021;-82
2023/03/17 14:23:56;;;;;;;0.55;0.55;;;;;;;;;;5039247;28;20505;-82
2023/03/17 14:26:24;;;;;;;3.05;1.27;;;;;;;;;;5042050;28;20029;-82
2023/03/17 14:28:50;;;;;;;1.63;1.05;;;;;;;;;;5035756;28;20033;-80
2023/03/17 14:31:24;;;;;;;2.53;1.38;;;;;;;;;;5041601;28;20384;-81
2023/03/17 14:33:54;;;;;;;3.20;1.77;;;;;;;;;;5031202;28;20025;-82
2023/03/17 14:36:20;;;;;;;7.35;1.80;;;;;;;;;;5028818;28;20052;-81
2023/03/17 14:38:51;;;;;;;8.95;3.53;;;;;;;;;;5042050;28;20025;-79
2023/03/17 14:41:28;;;;;;;6.78;2.38;;;;;;;;;;5033635;28;20359;-81
2023/03/17 14:43:58;;;;;;;0.70;0.70;;;;;;;;;;5036994;28;20034;-82
2023/03/17 14:46:34;;;;;;;;;;;;;;;;;;5034726;28;20485;-80
2023/03/17 14:49:02;;;;;;;2.05;1.02;;;;;;;;;;5035106;28;19912;-79
2023/03/17 14:51:36;;;;;;;3.40;1.40;;;;;;;;;;5036491;28;20033;-81
2023/03/17 14:54:19;;;;;;;1.40;1.25;;;;;;;;;;5044175;28;20021;-80
2023/03/17 14:56:51;;;;;;;2.42;1.92;;;;;;;;;;5033024;28;20362;-83
2023/03/17 14:59:28;;;;;;;3.55;1.67;;;;;;;;;;5036440;28;20052;-80
2023/03/17 15:02:00;;;;;;;3.78;1.63;;;;;;;;;;5030831;28;20095;-79